sensor_id;sensor_type;location;lat;lon;timestamp;P1;durP1;ratioP1;P2;durP2;ratioP2
56631;SDS011;42503;39.928;-75.152;2022-11-02T00:03:30;1.70;;;1.60;;
56631;SDS011;42503;39.928;-75.152;2022-11-02T00:05:31;1.98;;;1.80;;
56631;SDS011;42503;39.928;-75.152;2022-11-02T00:07:33;2.20;;;2.00;;
56631;SDS011;42503;39.928;-75.152;2022-11-02T00:09:34;2.25;;;2.05;;
56631;SDS011;42503;39.928;-75.152;2022-11-02T00:11:36;2.25;;;2.05;;
56631;SDS011;42503;39.928;-75.152;2022-11-02T00:13:37;1.83;;;1.70;;
56631;SDS011;42503;39.928;-75.152;2022-11-02T00:15:39;1.73;;;1.63;;
56631;SDS011;42503;39.928;-75.152;2022-11-02T00:17:41;2.85;;;2.05;;
56631;SDS011;42503;39.928;-75.152;2022-11-02T00:19:46;2.60;;;2.08;;
56631;SDS011;42503;39.928;-75.152;2022-11-02T00:21:47;2.10;;;1.90;;
56631;SDS011;42503;39.928;-75.152;2022-11-02T00:23:54;2.43;;;2.23;;
56631;SDS011;42503;39.928;-75.152;2022-11-02T00:25:57;2.33;;;2.13;;
56631;SDS011;42503;39.928;-75.152;2022-11-02T00:28:01;2.03;;;1.90;;
56631;SDS011;42503;39.928;-75.152;2022-11-02T00:30:06;1.85;;;1.75;;
56631;SDS011;42503;39.928;-75.152;2022-11-02T00:32:11;2.13;;;1.92;;
56631;SDS011;42503;39.928;-75.152;2022-11-02T00:34:15;2.42;;;1.60;;
56631;SDS011;42503;39.928;-75.152;2022-11-02T00:36:16;2.38;;;1.80;;
56631;SDS011;42503;39.928;-75.152;2022-11-02T00:38:18;2.40;;;2.20;;
56631;SDS011;42503;39.928;-75.152;2022-11-02T00:40:19;2.17;;;1.98;;
56631;SDS011;42503;39.928;-75.152;2022-11-02T00:42:21;2.03;;;1.83;;
56631;SDS011;42503;39.928;-75.152;2022-11-02T00:44:22;2.45;;;2.03;;
56631;SDS011;42503;39.928;-75.152;2022-11-02T00:46:23;2.40;;;2.08;;
56631;SDS011;42503;39.928;-75.152;2022-11-02T00:48:24;2.22;;;1.80;;
56631;SDS011;42503;39.928;-75.152;2022-11-02T00:50:29;2.20;;;2.00;;
56631;SDS011;42503;39.928;-75.152;2022-11-02T00:52:30;2.33;;;2.08;;
56631;SDS011;42503;39.928;-75.152;2022-11-02T00:54:31;2.17;;;1.98;;
56631;SDS011;42503;39.928;-75.152;2022-11-02T00:56:41;2.30;;;2.10;;
56631;SDS011;42503;39.928;-75.152;2022-11-02T00:58:43;2.22;;;2.08;;
56631;SDS011;42503;39.928;-75.152;2022-11-02T01:00:44;2.22;;;2.03;;
56631;SDS011;42503;39.928;-75.152;2022-11-02T01:02:48;2.42;;;1.90;;
56631;SDS011;42503;39.928;-75.152;2022-11-02T01:04:58;2.63;;;2.00;;
56631;SDS011;42503;39.928;-75.152;2022-11-02T01:07:00;2.45;;;2.00;;
56631;SDS011;42503;39.928;-75.152;2022-11-02T01:09:05;2.30;;;2.10;;
56631;SDS011;42503;39.928;-75.152;2022-11-02T01:11:10;2.25;;;1.70;;
56631;SDS011;42503;39.928;-75.152;2022-11-02T01:13:17;2.72;;;2.05;;
56631;SDS011;42503;39.928;-75.152;2022-11-02T01:15:18;2.00;;;1.80;;
56631;SDS011;42503;39.928;-75.152;2022-11-02T01:17:19;3.50;;;2.00;;
56631;SDS011;42503;39.928;-75.152;2022-11-02T01:19:21;2.67;;;2.47;;
56631;SDS011;42503;39.928;-75.152;2022-11-02T01:21:22;2.28;;;2.00;;
56631;SDS011;42503;39.928;-75.152;2022-11-02T01:23:27;1.80;;;1.70;;
56631;SDS011;42503;39.928;-75.152;2022-11-02T01:25:31;3.50;;;1.92;;
56631;SDS011;42503;39.928;-75.152;2022-11-02T01:27:33;2.00;;;1.90;;
56631;SDS011;42503;39.928;-75.152;2022-11-02T01:29:34;2.55;;;2.10;;
56631;SDS011;42503;39.928;-75.152;2022-11-02T01:31:35;7.70;;;1.95;;
56631;SDS011;42503;39.928;-75.152;2022-11-02T01:33:36;3.00;;;2.10;;
56631;SDS011;42503;39.928;-75.152;2022-11-02T01:35:46;2.00;;;1.80;;
56631;SDS011;42503;39.928;-75.152;2022-11-02T01:37:50;2.10;;;1.90;;
56631;SDS011;42503;39.928;-75.152;2022-11-02T01:39:51;3.20;;;2.15;;
56631;SDS011;42503;39.928;-75.152;2022-11-02T01:41:53;1.92;;;1.83;;
56631;SDS011;42503;39.928;-75.152;2022-11-02T01:43:55;3.35;;;2.20;;
56631;SDS011;42503;39.928;-75.152;2022-11-02T01:48:12;2.08;;;1.88;;
56631;SDS011;42503;39.928;-75.152;2022-11-02T01:50:18;2.20;;;2.00;;
56631;SDS011;42503;39.928;-75.152;2022-11-02T01:52:26;2.10;;;1.90;;
56631;SDS011;42503;39.928;-75.152;2022-11-02T01:54:36;3.75;;;2.00;;
56631;SDS011;42503;39.928;-75.152;2022-11-02T01:56:46;2.20;;;2.00;;
56631;SDS011;42503;39.928;-75.152;2022-11-02T01:58:57;2.28;;;2.08;;
56631;SDS011;42503;39.928;-75.152;2022-11-02T02:01:02;2.78;;;1.80;;
56631;SDS011;42503;39.928;-75.152;2022-11-02T02:03:05;2.20;;;2.00;;
56631;SDS011;42503;39.928;-75.152;2022-11-02T02:05:12;2.10;;;1.90;;
56631;SDS011;42503;39.928;-75.152;2022-11-02T02:07:15;2.47;;;2.25;;
56631;SDS011;42503;39.928;-75.152;2022-11-02T02:09:17;1.83;;;1.67;;
56631;SDS011;42503;39.928;-75.152;2022-11-02T02:11:33;2.05;;;1.77;;
56631;SDS011;42503;39.928;-75.152;2022-11-02T02:13:35;2.17;;;2.00;;
56631;SDS011;42503;39.928;-75.152;2022-11-02T02:18:24;2.33;;;2.13;;
56631;SDS011;42503;39.928;-75.152;2022-11-02T02:22:58;2.28;;;2.10;;
56631;SDS011;42503;39.928;-75.152;2022-11-02T02:30:19;2.35;;;2.15;;
56631;SDS011;42503;39.928;-75.152;2022-11-02T02:34:30;3.50;;;2.05;;
56631;SDS011;42503;39.928;-75.152;2022-11-02T02:37:00;2.40;;;1.95;;
56631;SDS011;42503;39.928;-75.152;2022-11-02T02:41:25;2.30;;;2.10;;
56631;SDS011;42503;39.928;-75.152;2022-11-02T02:47:43;3.35;;;1.90;;
56631;SDS011;42503;39.928;-75.152;2022-11-02T02:50:16;2.22;;;2.00;;
56631;SDS011;42503;39.928;-75.152;2022-11-02T02:52:21;2.83;;;2.08;;
56631;SDS011;42503;39.928;-75.152;2022-11-02T02:54:30;2.50;;;2.13;;
56631;SDS011;42503;39.928;-75.152;2022-11-02T02:56:44;2.40;;;2.20;;
56631;SDS011;42503;39.928;-75.152;2022-11-02T02:58:50;3.92;;;2.00;;
56631;SDS011;42503;39.928;-75.152;2022-11-02T03:01:19;2.20;;;2.00;;
56631;SDS011;42503;39.928;-75.152;2022-11-02T03:03:22;2.33;;;1.92;;
56631;SDS011;42503;39.928;-75.152;2022-11-02T03:05:29;2.92;;;2.00;;
56631;SDS011;42503;39.928;-75.152;2022-11-02T03:07:33;3.30;;;1.60;;
56631;SDS011;42503;39.928;-75.152;2022-11-02T03:11:53;2.08;;;1.80;;
56631;SDS011;42503;39.928;-75.152;2022-11-02T03:16:24;3.00;;;1.95;;
56631;SDS011;42503;39.928;-75.152;2022-11-02T03:18:54;2.30;;;2.10;;
56631;SDS011;42503;39.928;-75.152;2022-11-02T03:25:36;2.60;;;2.17;;
56631;SDS011;42503;39.928;-75.152;2022-11-02T03:27:56;2.38;;;2.17;;
56631;SDS011;42503;39.928;-75.152;2022-11-02T03:36:42;2.58;;;2.38;;
56631;SDS011;42503;39.928;-75.152;2022-11-02T03:38:49;3.17;;;2.20;;
56631;SDS011;42503;39.928;-75.152;2022-11-02T03:40:51;2.05;;;1.90;;
56631;SDS011;42503;39.928;-75.152;2022-11-02T03:42:56;3.97;;;2.20;;
56631;SDS011;42503;39.928;-75.152;2022-11-02T03:45:08;3.43;;;1.90;;
56631;SDS011;42503;39.928;-75.152;2022-11-02T03:47:17;2.28;;;2.00;;
56631;SDS011;42503;39.928;-75.152;2022-11-02T03:49:20;2.63;;;2.00;;
56631;SDS011;42503;39.928;-75.152;2022-11-02T03:51:23;2.33;;;2.13;;
56631;SDS011;42503;39.928;-75.152;2022-11-02T03:55:33;3.30;;;2.22;;
56631;SDS011;42503;39.928;-75.152;2022-11-02T03:57:45;2.28;;;2.08;;
56631;SDS011;42503;39.928;-75.152;2022-11-02T03:59:48;2.83;;;2.35;;
56631;SDS011;42503;39.928;-75.152;2022-11-02T04:01:50;2.40;;;2.20;;
56631;SDS011;42503;39.928;-75.152;2022-11-02T04:03:54;3.28;;;2.25;;
56631;SDS011;42503;39.928;-75.152;2022-11-02T04:05:55;3.10;;;2.30;;
56631;SDS011;42503;39.928;-75.152;2022-11-02T04:08:02;2.25;;;1.90;;
56631;SDS011;42503;39.928;-75.152;2022-11-02T04:10:23;4.60;;;2.20;;
56631;SDS011;42503;39.928;-75.152;2022-11-02T04:12:25;3.17;;;2.15;;
56631;SDS011;42503;39.928;-75.152;2022-11-02T04:14:44;2.38;;;2.17;;
56631;SDS011;42503;39.928;-75.152;2022-11-02T04:16:51;2.55;;;2.22;;
56631;SDS011;42503;39.928;-75.152;2022-11-02T04:19:16;2.25;;;2.05;;
56631;SDS011;42503;39.928;-75.152;2022-11-02T04:21:29;2.20;;;1.98;;
56631;SDS011;42503;39.928;-75.152;2022-11-02T04:23:33;2.78;;;2.40;;
56631;SDS011;42503;39.928;-75.152;2022-11-02T04:25:53;3.45;;;2.40;;
56631;SDS011;42503;39.928;-75.152;2022-11-02T04:27:55;2.35;;;1.92;;
56631;SDS011;42503;39.928;-75.152;2022-11-02T04:29:56;2.30;;;2.00;;
56631;SDS011;42503;39.928;-75.152;2022-11-02T04:31:57;3.50;;;2.50;;
56631;SDS011;42503;39.928;-75.152;2022-11-02T04:33:59;3.13;;;2.53;;
56631;SDS011;42503;39.928;-75.152;2022-11-02T04:36:04;2.47;;;2.10;;
56631;SDS011;42503;39.928;-75.152;2022-11-02T04:38:08;2.35;;;2.10;;
56631;SDS011;42503;39.928;-75.152;2022-11-02T04:40:28;3.25;;;2.10;;
56631;SDS011;42503;39.928;-75.152;2022-11-02T04:42:29;2.33;;;2.13;;
56631;SDS011;42503;39.928;-75.152;2022-11-02T04:44:30;1.95;;;1.83;;
56631;SDS011;42503;39.928;-75.152;2022-11-02T04:46:34;2.15;;;1.92;;
56631;SDS011;42503;39.928;-75.152;2022-11-02T04:48:40;2.30;;;2.05;;
56631;SDS011;42503;39.928;-75.152;2022-11-02T04:50:44;3.10;;;2.20;;
56631;SDS011;42503;39.928;-75.152;2022-11-02T04:52:53;2.38;;;2.17;;
56631;SDS011;42503;39.928;-75.152;2022-11-02T04:54:55;3.72;;;2.25;;
56631;SDS011;42503;39.928;-75.152;2022-11-02T04:56:59;2.80;;;2.23;;
56631;SDS011;42503;39.928;-75.152;2022-11-02T04:59:01;2.78;;;2.58;;
56631;SDS011;42503;39.928;-75.152;2022-11-02T05:01:05;2.60;;;2.15;;
56631;SDS011;42503;39.928;-75.152;2022-11-02T05:03:07;2.08;;;1.88;;
56631;SDS011;42503;39.928;-75.152;2022-11-02T05:05:09;2.45;;;2.05;;
56631;SDS011;42503;39.928;-75.152;2022-11-02T05:07:12;2.47;;;2.25;;
56631;SDS011;42503;39.928;-75.152;2022-11-02T05:09:16;2.70;;;2.50;;
56631;SDS011;42503;39.928;-75.152;2022-11-02T05:11:17;2.72;;;2.47;;
56631;SDS011;42503;39.928;-75.152;2022-11-02T05:13:19;3.63;;;2.33;;
56631;SDS011;42503;39.928;-75.152;2022-11-02T05:15:20;2.42;;;2.22;;
56631;SDS011;42503;39.928;-75.152;2022-11-02T05:17:21;2.22;;;2.03;;
56631;SDS011;42503;39.928;-75.152;2022-11-02T05:19:22;2.80;;;2.17;;
56631;SDS011;42503;39.928;-75.152;2022-11-02T05:21:24;2.83;;;2.60;;
56631;SDS011;42503;39.928;-75.152;2022-11-02T05:23:25;4.25;;;2.55;;
56631;SDS011;42503;39.928;-75.152;2022-11-02T05:25:27;2.42;;;1.85;;
56631;SDS011;42503;39.928;-75.152;2022-11-02T05:27:28;3.08;;;2.28;;
56631;SDS011;42503;39.928;-75.152;2022-11-02T05:29:29;2.40;;;2.20;;
56631;SDS011;42503;39.928;-75.152;2022-11-02T05:31:31;2.47;;;2.28;;
56631;SDS011;42503;39.928;-75.152;2022-11-02T05:33:32;3.40;;;2.80;;
56631;SDS011;42503;39.928;-75.152;2022-11-02T05:35:33;2.60;;;2.40;;
56631;SDS011;42503;39.928;-75.152;2022-11-02T05:37:34;2.53;;;2.33;;
56631;SDS011;42503;39.928;-75.152;2022-11-02T05:39:38;2.28;;;2.08;;
56631;SDS011;42503;39.928;-75.152;2022-11-02T05:41:40;2.20;;;2.00;;
56631;SDS011;42503;39.928;-75.152;2022-11-02T05:43:41;3.45;;;2.40;;
56631;SDS011;42503;39.928;-75.152;2022-11-02T05:45:42;2.45;;;2.25;;
56631;SDS011;42503;39.928;-75.152;2022-11-02T05:47:43;2.78;;;2.30;;
56631;SDS011;42503;39.928;-75.152;2022-11-02T05:49:45;2.75;;;2.03;;
56631;SDS011;42503;39.928;-75.152;2022-11-02T05:51:46;2.60;;;2.28;;
56631;SDS011;42503;39.928;-75.152;2022-11-02T05:53:48;2.30;;;2.10;;
56631;SDS011;42503;39.928;-75.152;2022-11-02T05:55:55;2.40;;;2.10;;
56631;SDS011;42503;39.928;-75.152;2022-11-02T05:57:59;2.55;;;2.10;;
56631;SDS011;42503;39.928;-75.152;2022-11-02T06:00:01;3.15;;;2.13;;
56631;SDS011;42503;39.928;-75.152;2022-11-02T06:02:06;2.65;;;2.45;;
56631;SDS011;42503;39.928;-75.152;2022-11-02T06:04:07;2.33;;;2.10;;
56631;SDS011;42503;39.928;-75.152;2022-11-02T06:06:09;3.35;;;2.22;;
56631;SDS011;42503;39.928;-75.152;2022-11-02T06:08:11;2.33;;;2.13;;
56631;SDS011;42503;39.928;-75.152;2022-11-02T06:10:13;2.20;;;2.08;;
56631;SDS011;42503;39.928;-75.152;2022-11-02T06:12:17;2.28;;;2.08;;
56631;SDS011;42503;39.928;-75.152;2022-11-02T06:14:18;3.53;;;2.47;;
56631;SDS011;42503;39.928;-75.152;2022-11-02T06:16:19;2.85;;;2.33;;
56631;SDS011;42503;39.928;-75.152;2022-11-02T06:18:21;2.30;;;2.10;;
56631;SDS011;42503;39.928;-75.152;2022-11-02T06:20:22;3.63;;;2.22;;
56631;SDS011;42503;39.928;-75.152;2022-11-02T06:22:23;3.97;;;2.15;;
56631;SDS011;42503;39.928;-75.152;2022-11-02T06:24:27;2.30;;;1.80;;
56631;SDS011;42503;39.928;-75.152;2022-11-02T06:26:29;2.50;;;2.30;;
56631;SDS011;42503;39.928;-75.152;2022-11-02T06:28:30;2.50;;;2.30;;
56631;SDS011;42503;39.928;-75.152;2022-11-02T06:30:34;2.50;;;2.30;;
56631;SDS011;42503;39.928;-75.152;2022-11-02T06:32:35;2.63;;;2.42;;
56631;SDS011;42503;39.928;-75.152;2022-11-02T06:34:36;2.65;;;2.40;;
56631;SDS011;42503;39.928;-75.152;2022-11-02T06:36:37;2.60;;;2.40;;
56631;SDS011;42503;39.928;-75.152;2022-11-02T06:38:39;2.58;;;2.38;;
56631;SDS011;42503;39.928;-75.152;2022-11-02T06:40:41;2.97;;;2.20;;
56631;SDS011;42503;39.928;-75.152;2022-11-02T06:42:45;2.10;;;1.90;;
56631;SDS011;42503;39.928;-75.152;2022-11-02T06:44:47;2.63;;;2.43;;
56631;SDS011;42503;39.928;-75.152;2022-11-02T06:46:51;2.42;;;2.22;;
56631;SDS011;42503;39.928;-75.152;2022-11-02T06:48:52;2.80;;;2.60;;
56631;SDS011;42503;39.928;-75.152;2022-11-02T06:50:59;2.40;;;2.20;;
56631;SDS011;42503;39.928;-75.152;2022-11-02T06:53:01;2.20;;;2.00;;
56631;SDS011;42503;39.928;-75.152;2022-11-02T06:55:03;2.90;;;2.38;;
56631;SDS011;42503;39.928;-75.152;2022-11-02T06:57:04;2.20;;;2.00;;
56631;SDS011;42503;39.928;-75.152;2022-11-02T06:59:06;2.13;;;1.92;;
56631;SDS011;42503;39.928;-75.152;2022-11-02T07:01:07;2.45;;;2.25;;
56631;SDS011;42503;39.928;-75.152;2022-11-02T07:03:09;2.40;;;2.20;;
56631;SDS011;42503;39.928;-75.152;2022-11-02T07:05:11;2.78;;;2.38;;
56631;SDS011;42503;39.928;-75.152;2022-11-02T07:07:13;2.47;;;2.28;;
56631;SDS011;42503;39.928;-75.152;2022-11-02T07:09:14;2.28;;;2.10;;
56631;SDS011;42503;39.928;-75.152;2022-11-02T07:11:15;2.40;;;2.17;;
56631;SDS011;42503;39.928;-75.152;2022-11-02T07:13:22;2.30;;;2.10;;
56631;SDS011;42503;39.928;-75.152;2022-11-02T07:15:26;2.20;;;2.00;;
56631;SDS011;42503;39.928;-75.152;2022-11-02T07:17:28;2.50;;;2.30;;
56631;SDS011;42503;39.928;-75.152;2022-11-02T07:19:29;2.60;;;2.40;;
56631;SDS011;42503;39.928;-75.152;2022-11-02T07:21:30;2.65;;;2.45;;
56631;SDS011;42503;39.928;-75.152;2022-11-02T07:23:32;4.15;;;2.55;;
56631;SDS011;42503;39.928;-75.152;2022-11-02T07:25:42;2.17;;;2.05;;
56631;SDS011;42503;39.928;-75.152;2022-11-02T07:27:43;2.20;;;2.00;;
56631;SDS011;42503;39.928;-75.152;2022-11-02T07:29:44;2.78;;;2.55;;
56631;SDS011;42503;39.928;-75.152;2022-11-02T07:31:46;3.90;;;2.30;;
56631;SDS011;42503;39.928;-75.152;2022-11-02T07:33:47;4.05;;;2.63;;
56631;SDS011;42503;39.928;-75.152;2022-11-02T07:35:48;2.83;;;2.28;;
56631;SDS011;42503;39.928;-75.152;2022-11-02T07:37:56;2.50;;;2.30;;
56631;SDS011;42503;39.928;-75.152;2022-11-02T07:39:59;2.50;;;2.30;;
56631;SDS011;42503;39.928;-75.152;2022-11-02T07:42:00;2.15;;;1.95;;
56631;SDS011;42503;39.928;-75.152;2022-11-02T07:44:02;2.45;;;2.03;;
56631;SDS011;42503;39.928;-75.152;2022-11-02T07:46:03;3.85;;;2.65;;
56631;SDS011;42503;39.928;-75.152;2022-11-02T07:48:05;3.22;;;2.30;;
56631;SDS011;42503;39.928;-75.152;2022-11-02T07:50:07;2.40;;;2.15;;
56631;SDS011;42503;39.928;-75.152;2022-11-02T07:52:14;2.53;;;2.33;;
56631;SDS011;42503;39.928;-75.152;2022-11-02T07:54:15;2.47;;;2.28;;
56631;SDS011;42503;39.928;-75.152;2022-11-02T07:56:19;2.60;;;2.40;;
56631;SDS011;42503;39.928;-75.152;2022-11-02T07:58:20;2.63;;;2.42;;
56631;SDS011;42503;39.928;-75.152;2022-11-02T08:00:25;2.60;;;2.40;;
56631;SDS011;42503;39.928;-75.152;2022-11-02T08:02:28;3.72;;;2.60;;
56631;SDS011;42503;39.928;-75.152;2022-11-02T08:04:30;2.50;;;2.30;;
56631;SDS011;42503;39.928;-75.152;2022-11-02T08:06:32;2.70;;;2.50;;
56631;SDS011;42503;39.928;-75.152;2022-11-02T08:08:35;3.33;;;2.70;;
56631;SDS011;42503;39.928;-75.152;2022-11-02T08:10:39;2.63;;;2.42;;
56631;SDS011;42503;39.928;-75.152;2022-11-02T08:12:45;3.25;;;2.28;;
56631;SDS011;42503;39.928;-75.152;2022-11-02T08:14:46;2.67;;;2.40;;
56631;SDS011;42503;39.928;-75.152;2022-11-02T08:16:50;3.13;;;2.40;;
56631;SDS011;42503;39.928;-75.152;2022-11-02T08:18:51;2.60;;;2.40;;
56631;SDS011;42503;39.928;-75.152;2022-11-02T08:21:04;3.60;;;2.30;;
56631;SDS011;42503;39.928;-75.152;2022-11-02T08:23:06;2.55;;;2.35;;
56631;SDS011;42503;39.928;-75.152;2022-11-02T08:25:09;2.63;;;2.08;;
56631;SDS011;42503;39.928;-75.152;2022-11-02T08:27:13;3.33;;;2.50;;
56631;SDS011;42503;39.928;-75.152;2022-11-02T08:29:15;2.43;;;2.23;;
56631;SDS011;42503;39.928;-75.152;2022-11-02T08:31:16;2.97;;;2.22;;
56631;SDS011;42503;39.928;-75.152;2022-11-02T08:33:18;2.92;;;2.50;;
56631;SDS011;42503;39.928;-75.152;2022-11-02T08:35:20;3.30;;;2.50;;
56631;SDS011;42503;39.928;-75.152;2022-11-02T08:37:21;3.25;;;2.40;;
56631;SDS011;42503;39.928;-75.152;2022-11-02T08:39:22;3.67;;;2.60;;
56631;SDS011;42503;39.928;-75.152;2022-11-02T08:41:24;2.72;;;2.50;;
56631;SDS011;42503;39.928;-75.152;2022-11-02T08:43:28;2.40;;;2.20;;
56631;SDS011;42503;39.928;-75.152;2022-11-02T08:45:29;2.45;;;2.25;;
56631;SDS011;42503;39.928;-75.152;2022-11-02T08:47:32;2.35;;;2.15;;
56631;SDS011;42503;39.928;-75.152;2022-11-02T08:49:33;2.63;;;2.20;;
56631;SDS011;42503;39.928;-75.152;2022-11-02T08:51:34;3.08;;;2.40;;
56631;SDS011;42503;39.928;-75.152;2022-11-02T08:53:38;3.05;;;2.80;;
56631;SDS011;42503;39.928;-75.152;2022-11-02T08:55:39;2.47;;;2.28;;
56631;SDS011;42503;39.928;-75.152;2022-11-02T08:57:44;2.92;;;2.15;;
56631;SDS011;42503;39.928;-75.152;2022-11-02T08:59:46;2.33;;;2.13;;
56631;SDS011;42503;39.928;-75.152;2022-11-02T09:01:47;2.80;;;2.60;;
56631;SDS011;42503;39.928;-75.152;2022-11-02T09:03:49;3.33;;;2.28;;
56631;SDS011;42503;39.928;-75.152;2022-11-02T09:05:54;2.58;;;2.05;;
56631;SDS011;42503;39.928;-75.152;2022-11-02T09:08:01;2.80;;;2.40;;
56631;SDS011;42503;39.928;-75.152;2022-11-02T09:10:04;2.55;;;2.35;;
56631;SDS011;42503;39.928;-75.152;2022-11-02T09:12:09;2.50;;;2.22;;
56631;SDS011;42503;39.928;-75.152;2022-11-02T09:14:10;2.95;;;2.67;;
56631;SDS011;42503;39.928;-75.152;2022-11-02T09:16:11;2.53;;;2.20;;
56631;SDS011;42503;39.928;-75.152;2022-11-02T09:18:12;2.65;;;2.25;;
56631;SDS011;42503;39.928;-75.152;2022-11-02T09:20:14;2.92;;;2.38;;
56631;SDS011;42503;39.928;-75.152;2022-11-02T09:22:16;2.42;;;2.22;;
56631;SDS011;42503;39.928;-75.152;2022-11-02T09:24:18;3.03;;;2.60;;
56631;SDS011;42503;39.928;-75.152;2022-11-02T09:26:19;2.92;;;2.63;;
56631;SDS011;42503;39.928;-75.152;2022-11-02T09:28:20;2.67;;;2.47;;
56631;SDS011;42503;39.928;-75.152;2022-11-02T09:30:22;2.92;;;2.50;;
56631;SDS011;42503;39.928;-75.152;2022-11-02T09:32:25;3.65;;;2.40;;
56631;SDS011;42503;39.928;-75.152;2022-11-02T09:34:26;3.00;;;2.47;;
56631;SDS011;42503;39.928;-75.152;2022-11-02T09:36:33;2.45;;;2.25;;
56631;SDS011;42503;39.928;-75.152;2022-11-02T09:38:35;2.35;;;2.15;;
56631;SDS011;42503;39.928;-75.152;2022-11-02T09:45:21;2.72;;;2.35;;
56631;SDS011;42503;39.928;-75.152;2022-11-02T09:47:23;2.90;;;2.25;;
56631;SDS011;42503;39.928;-75.152;2022-11-02T09:49:27;2.50;;;2.30;;
56631;SDS011;42503;39.928;-75.152;2022-11-02T09:51:34;3.25;;;2.80;;
56631;SDS011;42503;39.928;-75.152;2022-11-02T09:53:40;3.10;;;2.78;;
56631;SDS011;42503;39.928;-75.152;2022-11-02T09:55:51;3.33;;;3.03;;
56631;SDS011;42503;39.928;-75.152;2022-11-02T09:58:16;2.67;;;2.30;;
56631;SDS011;42503;39.928;-75.152;2022-11-02T10:00:23;2.53;;;2.33;;
56631;SDS011;42503;39.928;-75.152;2022-11-02T10:04:52;2.92;;;2.60;;
56631;SDS011;42503;39.928;-75.152;2022-11-02T10:09:44;2.65;;;2.42;;
56631;SDS011;42503;39.928;-75.152;2022-11-02T10:16:18;2.63;;;2.42;;
56631;SDS011;42503;39.928;-75.152;2022-11-02T10:18:25;2.28;;;2.08;;
56631;SDS011;42503;39.928;-75.152;2022-11-02T10:20:36;2.50;;;2.30;;
56631;SDS011;42503;39.928;-75.152;2022-11-02T10:22:41;2.90;;;2.70;;
56631;SDS011;42503;39.928;-75.152;2022-11-02T10:24:44;2.60;;;2.40;;
56631;SDS011;42503;39.928;-75.152;2022-11-02T10:26:47;2.50;;;2.30;;
56631;SDS011;42503;39.928;-75.152;2022-11-02T10:28:56;3.10;;;2.80;;
56631;SDS011;42503;39.928;-75.152;2022-11-02T10:31:02;2.58;;;2.38;;
56631;SDS011;42503;39.928;-75.152;2022-11-02T10:33:18;3.22;;;2.53;;
56631;SDS011;42503;39.928;-75.152;2022-11-02T10:35:40;2.40;;;2.20;;
56631;SDS011;42503;39.928;-75.152;2022-11-02T10:38:09;2.80;;;2.60;;
56631;SDS011;42503;39.928;-75.152;2022-11-02T10:45:35;2.55;;;2.28;;
56631;SDS011;42503;39.928;-75.152;2022-11-02T10:52:28;2.92;;;2.65;;
56631;SDS011;42503;39.928;-75.152;2022-11-02T10:54:35;4.78;;;2.58;;
56631;SDS011;42503;39.928;-75.152;2022-11-02T10:56:40;2.67;;;2.45;;
56631;SDS011;42503;39.928;-75.152;2022-11-02T10:58:51;2.92;;;2.67;;
56631;SDS011;42503;39.928;-75.152;2022-11-02T11:01:04;2.90;;;2.65;;
56631;SDS011;42503;39.928;-75.152;2022-11-02T11:05:12;3.22;;;2.42;;
56631;SDS011;42503;39.928;-75.152;2022-11-02T11:07:32;2.70;;;2.50;;
56631;SDS011;42503;39.928;-75.152;2022-11-02T11:09:47;2.63;;;2.42;;
56631;SDS011;42503;39.928;-75.152;2022-11-02T11:11:55;8.20;;;2.63;;
56631;SDS011;42503;39.928;-75.152;2022-11-02T11:14:01;6.63;;;3.10;;
56631;SDS011;42503;39.928;-75.152;2022-11-02T11:16:06;11.05;;;3.08;;
56631;SDS011;42503;39.928;-75.152;2022-11-02T11:18:11;5.20;;;2.80;;
56631;SDS011;42503;39.928;-75.152;2022-11-02T11:20:34;4.65;;;2.60;;
56631;SDS011;42503;39.928;-75.152;2022-11-02T11:22:38;4.35;;;3.03;;
56631;SDS011;42503;39.928;-75.152;2022-11-02T11:24:39;4.80;;;2.95;;
56631;SDS011;42503;39.928;-75.152;2022-11-02T11:26:41;3.42;;;2.33;;
56631;SDS011;42503;39.928;-75.152;2022-11-02T11:28:52;6.50;;;3.00;;
56631;SDS011;42503;39.928;-75.152;2022-11-02T11:31:05;6.75;;;2.58;;
56631;SDS011;42503;39.928;-75.152;2022-11-02T11:33:15;6.85;;;3.13;;
56631;SDS011;42503;39.928;-75.152;2022-11-02T11:35:20;6.38;;;3.13;;
56631;SDS011;42503;39.928;-75.152;2022-11-02T11:37:24;4.38;;;2.67;;
56631;SDS011;42503;39.928;-75.152;2022-11-02T11:39:26;3.20;;;2.67;;
56631;SDS011;42503;39.928;-75.152;2022-11-02T11:41:30;3.85;;;3.20;;
56631;SDS011;42503;39.928;-75.152;2022-11-02T11:43:34;6.45;;;3.00;;
56631;SDS011;42503;39.928;-75.152;2022-11-02T11:45:40;4.20;;;2.83;;
56631;SDS011;42503;39.928;-75.152;2022-11-02T11:50:48;4.05;;;3.00;;
56631;SDS011;42503;39.928;-75.152;2022-11-02T11:55:21;3.83;;;2.70;;
56631;SDS011;42503;39.928;-75.152;2022-11-02T11:57:32;6.00;;;3.15;;
56631;SDS011;42503;39.928;-75.152;2022-11-02T11:59:46;4.85;;;2.95;;
56631;SDS011;42503;39.928;-75.152;2022-11-02T12:01:50;4.80;;;3.30;;
56631;SDS011;42503;39.928;-75.152;2022-11-02T12:03:57;4.65;;;3.28;;
56631;SDS011;42503;39.928;-75.152;2022-11-02T12:08:19;6.15;;;3.40;;
56631;SDS011;42503;39.928;-75.152;2022-11-02T12:18:02;4.70;;;3.10;;
56631;SDS011;42503;39.928;-75.152;2022-11-02T12:20:16;6.97;;;3.42;;
56631;SDS011;42503;39.928;-75.152;2022-11-02T12:22:22;7.82;;;3.40;;
56631;SDS011;42503;39.928;-75.152;2022-11-02T12:31:50;5.88;;;3.67;;
56631;SDS011;42503;39.928;-75.152;2022-11-02T12:34:12;13.98;;;4.15;;
56631;SDS011;42503;39.928;-75.152;2022-11-02T12:39:32;3.42;;;3.13;;
56631;SDS011;42503;39.928;-75.152;2022-11-02T12:41:52;4.95;;;3.58;;
56631;SDS011;42503;39.928;-75.152;2022-11-02T12:46:54;3.85;;;3.45;;
56631;SDS011;42503;39.928;-75.152;2022-11-02T12:49:01;4.68;;;3.20;;
56631;SDS011;42503;39.928;-75.152;2022-11-02T12:55:50;4.88;;;3.10;;
56631;SDS011;42503;39.928;-75.152;2022-11-02T12:57:53;4.78;;;2.90;;
56631;SDS011;42503;39.928;-75.152;2022-11-02T13:00:06;4.80;;;3.20;;
56631;SDS011;42503;39.928;-75.152;2022-11-02T13:02:18;6.22;;;3.55;;
56631;SDS011;42503;39.928;-75.152;2022-11-02T13:04:27;4.88;;;3.40;;
56631;SDS011;42503;39.928;-75.152;2022-11-02T13:06:41;4.63;;;3.50;;
56631;SDS011;42503;39.928;-75.152;2022-11-02T13:08:52;3.67;;;2.85;;
56631;SDS011;42503;39.928;-75.152;2022-11-02T13:11:05;6.90;;;3.60;;
56631;SDS011;42503;39.928;-75.152;2022-11-02T13:13:13;4.38;;;3.78;;
56631;SDS011;42503;39.928;-75.152;2022-11-02T13:15:24;5.43;;;3.50;;
56631;SDS011;42503;39.928;-75.152;2022-11-02T13:17:35;5.38;;;3.35;;
56631;SDS011;42503;39.928;-75.152;2022-11-02T13:22:17;4.10;;;3.40;;
56631;SDS011;42503;39.928;-75.152;2022-11-02T13:24:21;3.70;;;3.15;;
56631;SDS011;42503;39.928;-75.152;2022-11-02T13:26:27;5.55;;;3.50;;
56631;SDS011;42503;39.928;-75.152;2022-11-02T13:28:43;4.80;;;3.22;;
56631;SDS011;42503;39.928;-75.152;2022-11-02T13:30:47;5.90;;;3.67;;
56631;SDS011;42503;39.928;-75.152;2022-11-02T13:33:11;4.28;;;3.35;;
56631;SDS011;42503;39.928;-75.152;2022-11-02T13:37:44;5.60;;;3.40;;
56631;SDS011;42503;39.928;-75.152;2022-11-02T13:39:48;6.10;;;3.22;;
56631;SDS011;42503;39.928;-75.152;2022-11-02T13:46:40;3.58;;;3.28;;
56631;SDS011;42503;39.928;-75.152;2022-11-02T13:48:58;3.90;;;3.50;;
56631;SDS011;42503;39.928;-75.152;2022-11-02T13:51:09;5.32;;;3.40;;
56631;SDS011;42503;39.928;-75.152;2022-11-02T13:53:18;3.78;;;3.40;;
56631;SDS011;42503;39.928;-75.152;2022-11-02T13:55:32;4.20;;;3.80;;
56631;SDS011;42503;39.928;-75.152;2022-11-02T13:57:54;6.00;;;3.72;;
56631;SDS011;42503;39.928;-75.152;2022-11-02T14:00:03;4.18;;;3.15;;
56631;SDS011;42503;39.928;-75.152;2022-11-02T14:02:24;3.92;;;3.40;;
56631;SDS011;42503;39.928;-75.152;2022-11-02T14:04:37;3.50;;;3.20;;